Time;durP1;ratioP1;P1;durP2;ratioP2;P2;SDS_P1;SDS_P2;PMS_P1;PMS_P2;Temp;Humidity;BMP_temperature;BMP_pressure;BME280_temperature;BME280_humidity;BME280_pressure;Samples;Min_cycle;Max_cycle;Signal;HPM_P1;HPM_P2
2021/12/08 05:07:49;;;;;;;5.28;2.90;;;2.90;99.90;;;;;;4897705;28;94845;-74
2021/12/08 05:10:21;;;;;;;5.10;3.20;;;2.90;99.90;;;;;;4897538;28;94659;-74
2021/12/08 05:12:49;;;;;;;7.68;3.45;;;3.00;99.90;;;;;;4911058;28;95631;-74
2021/12/08 05:15:41;;;;;;;9.13;3.30;;;3.00;99.90;;;;;;4956918;23;95280;-77
2021/12/08 05:18:20;;;;;;;8.73;3.50;;;3.00;99.90;;;;;;4939041;28;94383;-77
2021/12/08 05:20:52;;;;;;;5.78;3.58;;;3.00;99.90;;;;;;4937823;28;93688;-77
2021/12/08 05:23:41;;;;;;;6.63;3.70;;;3.10;99.90;;;;;;4938715;28;94583;-77
2021/12/08 05:26:15;;;;;;;7.28;3.60;;;3.10;99.90;;;;;;4927289;28;95616;-77
2021/12/08 05:28:43;;;;;;;9.85;4.10;;;3.10;99.90;;;;;;4937193;28;95531;-77
2021/12/08 05:31:17;;;;;;;7.72;4.05;;;3.10;99.90;;;;;;4938705;28;94333;-77
2021/12/08 05:33:45;;;;;;;9.52;5.00;;;3.20;99.90;;;;;;4937309;28;98128;-76
2021/12/08 05:36:12;;;;;;;10.23;4.60;;;3.20;99.90;;;;;;4938283;28;96452;-76
2021/12/08 05:38:39;;;;;;;6.97;4.35;;;3.20;99.90;;;;;;4938039;28;94736;-76
2021/12/08 05:41:22;;;;;;;8.18;4.53;;;3.10;99.90;;;;;;4938441;28;94546;-77
2021/12/08 05:43:48;;;;;;;7.15;3.75;;;3.10;99.90;;;;;;4938111;28;94740;-76
2021/12/08 05:46:17;;;;;;;9.38;4.22;;;3.20;99.90;;;;;;4939043;28;94078;-76
2021/12/08 05:48:45;;;;;;;7.10;3.58;;;3.20;99.90;;;;;;4937292;28;94565;-76
2021/12/08 05:51:22;;;;;;;8.40;3.83;;;3.30;99.90;;;;;;4938400;28;94379;-76
2021/12/08 05:53:52;;;;;;;6.93;3.20;;;3.30;99.90;;;;;;4937560;28;96714;-76
2021/12/08 05:56:19;;;;;;;6.65;3.78;;;3.40;99.90;;;;;;4938099;28;95924;-76
2021/12/08 05:58:46;;;;;;;9.18;4.65;;;3.40;99.90;;;;;;4938931;28;94759;-76
2021/12/08 06:01:33;;;;;;;9.30;4.07;;;3.40;99.90;;;;;;4936925;28;94722;-76
2021/12/08 06:03:59;;;;;;;13.20;5.05;;;3.50;99.90;;;;;;4937935;28;95743;-76
2021/12/08 06:06:26;;;;;;;6.05;3.80;;;3.50;99.90;;;;;;4936461;28;98093;-76
2021/12/08 06:08:53;;;;;;;5.85;3.67;;;3.60;99.90;;;;;;4937007;28;94556;-76
2021/12/08 06:11:19;;;;;;;8.43;3.53;;;3.60;99.90;;;;;;4936219;28;93649;-76
2021/12/08 06:13:47;;;;;;;8.18;3.60;;;3.70;99.90;;;;;;4937208;28;94554;-76
2021/12/08 06:16:13;;;;;;;6.28;4.10;;;3.80;99.90;;;;;;4938590;28;94371;-76
2021/12/08 06:18:41;;;;;;;5.93;3.70;;;3.80;99.90;;;;;;4938317;28;95391;-76
2021/12/08 06:21:11;;;;;;;8.57;4.65;;;3.80;99.90;;;;;;4938110;28;94494;-76
2021/12/08 06:23:38;;;;;;;8.30;4.53;;;3.90;99.90;;;;;;4935919;28;97541;-76
2021/12/08 06:26:04;;;;;;;8.85;5.00;;;3.90;99.90;;;;;;4936395;28;96124;-81
2021/12/08 06:28:30;;;;;;;7.57;4.18;;;3.90;99.90;;;;;;4937986;28;94470;-76
2021/12/08 06:30:56;;;;;;;8.65;5.10;;;3.90;99.90;;;;;;4938000;28;94465;-76
2021/12/08 06:33:22;;;;;;;11.25;5.25;;;3.90;99.90;;;;;;4936071;28;98213;-76
2021/12/08 06:35:52;;;;;;;9.15;4.88;;;3.90;99.90;;;;;;4937780;28;94115;-76
2021/12/08 06:38:19;;;;;;;8.40;5.53;;;3.90;99.90;;;;;;4936523;28;94534;-78
2021/12/08 06:40:49;;;;;;;12.10;7.05;;;4.00;99.90;;;;;;4937449;28;94440;-76
2021/12/08 06:43:18;;;;;;;14.60;6.57;;;4.00;99.90;;;;;;4936304;28;98354;-77
2021/12/08 06:45:47;;;;;;;12.13;6.32;;;4.00;99.90;;;;;;4935865;28;100492;-77
2021/12/08 06:48:18;;;;;;;10.73;6.00;;;4.00;99.90;;;;;;4936696;28;94763;-77
2021/12/08 06:50:59;;;;;;;13.77;6.30;;;4.00;99.90;;;;;;4938299;28;94514;-76
2021/12/08 06:53:25;;;;;;;12.82;5.60;;;4.00;99.90;;;;;;4938288;28;94755;-76
2021/12/08 06:55:58;;;;;;;10.48;5.30;;;4.00;99.90;;;;;;4936665;28;97877;-76
2021/12/08 06:58:28;;;;;;;12.43;6.22;;;4.00;99.90;;;;;;4938957;28;94658;-76
2021/12/08 07:03:51;;;;;;;12.35;5.78;;;4.10;99.90;;;;;;4929717;28;95949;-76
2021/12/08 07:06:43;;;;;;;8.98;5.60;;;4.10;99.90;;;;;;4921046;28;94990;-76
2021/12/08 07:09:37;;;;;;;9.48;5.65;;;4.10;99.90;;;;;;4928727;28;95502;-76
2021/12/08 07:12:31;;;;;;;9.25;5.75;;;4.10;99.90;;;;;;4910953;28;94817;-76
2021/12/08 07:15:06;;;;;;;6.70;5.05;;;4.20;99.90;;;;;;4928715;28;96722;-76
2021/12/08 07:17:36;;;;;;;9.88;5.30;;;4.20;99.90;;;;;;4929615;28;95739;-76
2021/12/08 07:20:15;;;;;;;8.43;5.10;;;4.20;99.90;;;;;;4920446;28;94633;-76
2021/12/08 07:22:45;;;;;;;11.15;5.30;;;4.20;99.90;;;;;;4923027;28;95222;-76
2021/12/08 07:25:13;;;;;;;8.70;4.65;;;4.30;99.90;;;;;;4928015;28;95709;-76
2021/12/08 07:27:39;;;;;;;6.60;4.50;;;4.30;99.90;;;;;;4929843;28;97656;-76
2021/12/08 07:30:21;;;;;;;10.18;5.25;;;4.30;99.90;;;;;;4919843;28;94578;-76
2021/12/08 07:32:47;;;;;;;7.18;5.18;;;4.30;99.90;;;;;;4932137;28;94576;-79
2021/12/08 07:35:20;;;;;;;10.35;5.80;;;4.30;99.90;;;;;;4928718;28;99323;-79
2021/12/08 07:37:47;;;;;;;7.95;4.80;;;4.40;99.90;;;;;;4923815;28;99011;-80
2021/12/08 07:40:28;;;;;;;7.22;5.30;;;4.40;99.90;;;;;;4934939;28;94767;-80
2021/12/08 07:43:07;;;;;;;9.38;5.00;;;4.40;99.90;;;;;;4922670;28;94603;-77
2021/12/08 07:45:38;;;;;;;8.10;4.93;;;4.40;99.90;;;;;;4922340;28;97368;-77
2021/12/08 07:48:07;;;;;;;6.80;4.80;;;4.40;99.90;;;;;;4933322;28;95283;-77
2021/12/08 07:50:41;;;;;;;14.65;8.55;;;4.40;99.90;;;;;;4920717;28;95343;-80
2021/12/08 07:53:14;;;;;;;12.20;7.95;;;4.40;99.90;;;;;;4926327;28;95638;-77
2021/12/08 07:55:48;;;;;;;9.57;6.47;;;4.40;99.90;;;;;;4927985;28;97256;-77
2021/12/08 07:58:16;;;;;;;8.43;5.35;;;4.40;99.90;;;;;;4921094;28;96436;-78
2021/12/08 08:00:56;;;;;;;8.38;6.03;;;4.50;99.90;;;;;;4931354;28;95793;-78
2021/12/08 08:03:23;;;;;;;12.15;6.63;;;4.50;99.90;;;;;;4927365;28;94467;-79
2021/12/08 08:05:51;;;;;;;11.93;6.68;;;4.50;99.90;;;;;;4929216;28;95474;-79
2021/12/08 08:08:19;;;;;;;12.25;6.68;;;4.50;99.90;;;;;;4916833;28;97804;-83
2021/12/08 08:10:50;;;;;;;10.85;6.28;;;4.50;99.90;;;;;;4924717;28;94397;-78
2021/12/08 08:13:18;;;;;;;8.70;6.50;;;4.50;99.90;;;;;;4930026;28;94566;-79
2021/12/08 08:15:48;;;;;;;7.55;5.47;;;4.60;99.90;;;;;;4922096;28;94585;-76
2021/12/08 08:18:18;;;;;;;9.88;6.25;;;4.60;99.90;;;;;;4915154;28;95321;-77
2021/12/08 08:20:51;;;;;;;8.85;5.88;;;4.60;99.90;;;;;;4922391;28;94360;-77
2021/12/08 08:23:20;;;;;;;11.63;6.95;;;4.60;99.90;;;;;;4924731;28;94611;-79
2021/12/08 08:25:47;;;;;;;9.02;5.63;;;4.60;99.90;;;;;;4931419;28;95425;-79
2021/12/08 08:28:16;;;;;;;8.20;4.72;;;4.60;99.90;;;;;;4919352;28;95076;-78
2021/12/08 08:30:45;;;;;;;7.93;5.03;;;4.60;99.90;;;;;;4928382;28;94701;-78
2021/12/08 08:33:12;;;;;;;7.00;4.60;;;4.60;99.90;;;;;;4934596;28;94660;-78
2021/12/08 08:35:56;;;;;;;6.43;3.63;;;4.60;99.90;;;;;;4921364;28;94644;-78
2021/12/08 08:38:30;;;;;;;6.65;4.00;;;4.60;99.90;;;;;;4931401;28;94371;-78
2021/12/08 08:41:00;;;;;;;6.70;4.00;;;4.70;99.90;;;;;;4925607;28;94447;-78
2021/12/08 08:43:26;;;;;;;7.50;4.57;;;4.70;99.90;;;;;;4924189;28;93727;-78
2021/12/08 08:46:10;;;;;;;5.65;4.20;;;4.70;99.90;;;;;;4928241;28;97976;-78
2021/12/08 08:48:41;;;;;;;8.98;4.25;;;4.70;99.90;;;;;;4920331;28;94562;-78
2021/12/08 08:51:25;;;;;;;8.05;4.45;;;4.80;99.90;;;;;;4926236;28;95338;-78
2021/12/08 08:53:54;;;;;;;8.43;4.07;;;4.80;99.90;;;;;;4928618;28;95519;-78
2021/12/08 08:56:28;;;;;;;8.00;4.85;;;4.80;99.90;;;;;;4916922;28;97313;-78
2021/12/08 08:59:00;;;;;;;5.70;4.15;;;4.80;99.90;;;;;;4928461;28;94534;-78
2021/12/08 09:01:36;;;;;;;8.18;4.05;;;4.80;99.90;;;;;;4927051;28;94342;-78
2021/12/08 09:04:11;;;;;;;6.53;3.80;;;4.90;99.90;;;;;;4918829;28;94367;-78
2021/12/08 09:06:39;;;;;;;6.03;3.63;;;4.90;99.90;;;;;;4919565;28;95684;-78
2021/12/08 09:09:09;;;;;;;7.30;4.00;;;4.90;99.90;;;;;;4926640;28;94113;-78
2021/12/08 09:11:43;;;;;;;5.68;3.95;;;5.00;99.90;;;;;;4926635;28;94423;-78
2021/12/08 09:14:16;;;;;;;6.40;4.20;;;5.00;99.90;;;;;;4918365;28;94445;-78
2021/12/08 09:16:50;;;;;;;10.73;4.10;;;5.00;99.90;;;;;;4927250;28;99154;-81
2021/12/08 09:19:22;;;;;;;7.13;3.95;;;5.00;99.90;;;;;;4925622;28;94998;-78
2021/12/08 09:22:06;;;;;;;6.07;4.57;;;5.00;99.90;;;;;;4921444;28;94357;-78
2021/12/08 09:24:48;;;;;;;7.57;4.70;;;5.00;99.90;;;;;;4929805;28;94663;-77
2021/12/08 09:27:20;;;;;;;8.93;5.25;;;5.00;99.90;;;;;;4915576;28;94565;-77
2021/12/08 09:29:54;;;;;;;6.53;4.38;;;5.10;99.90;;;;;;4914222;28;97735;-78
2021/12/08 09:32:30;;;;;;;5.60;4.43;;;5.10;99.90;;;;;;4916159;28;94424;-77
2021/12/08 09:35:01;;;;;;;4.90;3.47;;;5.10;99.90;;;;;;4921321;28;93697;-77
2021/12/08 09:37:31;;;;;;;6.68;3.80;;;5.20;99.90;;;;;;4934565;28;95542;-77
2021/12/08 09:40:07;;;;;;;5.38;3.80;;;5.20;99.90;;;;;;4935020;28;94820;-77
2021/12/08 09:42:40;;;;;;;6.60;3.63;;;5.20;99.90;;;;;;4932063;28;95413;-77
2021/12/08 09:45:31;;;;;;;4.85;3.50;;;5.20;99.90;;;;;;4926009;28;94549;-76
2021/12/08 09:48:00;;;;;;;4.57;3.50;;;5.20;99.90;;;;;;4918316;28;96997;-80
2021/12/08 09:50:25;;;;;;;5.05;3.53;;;5.30;99.90;;;;;;4922928;28;98183;-76
2021/12/08 09:52:51;;;;;;;6.72;3.85;;;5.30;99.90;;;;;;4929277;28;95321;-76
2021/12/08 09:55:17;;;;;;;5.80;3.47;;;5.30;99.90;;;;;;4937996;28;94832;-77
2021/12/08 09:57:45;;;;;;;5.00;3.58;;;5.30;99.90;;;;;;4936533;28;98321;-76
2021/12/08 10:00:20;;;;;;;4.07;3.10;;;5.30;99.90;;;;;;4938631;28;94052;-76
2021/12/08 10:02:46;;;;;;;4.85;3.17;;;5.40;99.90;;;;;;4937351;28;94526;-76
2021/12/08 10:05:14;;;;;;;5.97;3.33;;;5.40;99.90;;;;;;4937852;28;94622;-76
2021/12/08 10:07:40;;;;;;;6.13;3.40;;;5.40;99.90;;;;;;4937497;28;95436;-78
2021/12/08 10:10:09;;;;;;;5.45;3.13;;;5.50;99.90;;;;;;4938365;28;95980;-80
2021/12/08 10:12:37;;;;;;;4.95;3.35;;;5.50;99.90;;;;;;4938297;28;94504;-77
2021/12/08 10:15:06;;;;;;;4.43;3.30;;;5.50;99.90;;;;;;4937041;28;94572;-77
2021/12/08 10:17:33;;;;;;;6.60;3.55;;;5.50;99.90;;;;;;4936840;28;95535;-78
2021/12/08 10:20:16;;;;;;;6.40;4.18;;;5.50;99.90;;;;;;4937960;28;94878;-78
2021/12/08 10:22:44;;;;;;;5.97;4.40;;;5.50;99.90;;;;;;4938197;28;94431;-78
2021/12/08 10:25:17;;;;;;;6.05;3.70;;;5.60;99.90;;;;;;4937720;28;93748;-78
2021/12/08 10:28:06;;;;;;;5.50;3.72;;;5.60;99.90;;;;;;4936035;28;97146;-80
2021/12/08 10:30:41;;;;;;;5.80;3.88;;;5.60;99.90;;;;;;4937910;28;95232;-79
2021/12/08 10:33:35;;;;;;;7.22;3.95;;;5.60;99.90;;;;;;4937942;28;95301;-79
2021/12/08 10:36:04;;;;;;;4.63;3.40;;;5.60;99.90;;;;;;4937716;28;94384;-77
2021/12/08 10:38:38;;;;;;;7.22;4.32;;;5.50;99.90;;;;;;4929937;28;95986;-77
2021/12/08 10:41:07;;;;;;;5.28;4.20;;;5.40;99.90;;;;;;4918977;28;94869;-77
2021/12/08 10:43:33;;;;;;;6.88;4.40;;;5.50;99.90;;;;;;4933261;28;94446;-77
2021/12/08 10:46:09;;;;;;;20.25;11.63;;;5.50;99.90;;;;;;4923403;28;95169;-77
2021/12/08 10:48:42;;;;;;;7.68;5.25;;;5.50;99.90;;;;;;4925044;28;94399;-76
2021/12/08 10:54:30;;;;;;;7.50;4.65;;;5.40;99.90;;;;;;4924956;28;94643;-76
2021/12/08 10:56:57;;;;;;;14.32;9.38;;;5.40;99.90;;;;;;4922146;28;95199;-77
2021/12/08 10:59:28;;;;;;;7.95;4.47;;;5.40;99.90;;;;;;4922592;28;96034;-78
2021/12/08 11:01:59;;;;;;;5.90;4.00;;;5.40;99.90;;;;;;4916250;28;99193;-77
2021/12/08 11:04:30;;;;;;;4.60;3.50;;;5.40;99.90;;;;;;4916053;28;94463;-80
2021/12/08 11:07:04;;;;;;;5.10;3.72;;;5.50;99.90;;;;;;4916134;28;94745;-78
2021/12/08 11:09:39;;;;;;;6.57;4.20;;;5.40;99.90;;;;;;4915962;28;98055;-79
2021/12/08 11:12:05;;;;;;;6.68;3.85;;;5.50;99.90;;;;;;4917730;28;94454;-78
2021/12/08 11:14:46;;;;;;;7.10;3.90;;;5.40;99.90;;;;;;4916063;28;94485;-76
2021/12/08 11:17:26;;;;;;;7.85;4.45;;;5.40;99.90;;;;;;4916379;28;93747;-76
2021/12/08 11:20:16;;;;;;;7.35;4.47;;;5.50;99.90;;;;;;4915958;28;97273;-77
2021/12/08 11:22:44;;;;;;;8.05;4.43;;;5.50;99.90;;;;;;4917553;28;95043;-77
2021/12/08 11:25:22;;;;;;;5.82;4.25;;;5.50;99.90;;;;;;4916368;28;95499;-77
2021/12/08 11:27:48;;;;;;;6.45;4.45;;;5.50;99.90;;;;;;4916906;28;94529;-79
2021/12/08 11:30:19;;;;;;;8.23;5.28;;;5.60;99.90;;;;;;4916405;28;98103;-78
2021/12/08 11:32:44;;;;;;;6.60;4.80;;;5.60;99.90;;;;;;4916124;28;98176;-77
2021/12/08 11:35:21;;;;;;;6.57;4.82;;;5.60;99.90;;;;;;4917007;28;94947;-77
2021/12/08 11:37:59;;;;;;;5.68;4.65;;;5.70;99.90;;;;;;4918453;28;94563;-78
2021/12/08 11:40:25;;;;;;;5.68;4.80;;;5.70;99.90;;;;;;4920421;28;96783;-79
2021/12/08 11:42:51;;;;;;;6.50;4.68;;;5.80;99.90;;;;;;4917120;28;97695;-77
2021/12/08 11:45:19;;;;;;;6.53;4.40;;;5.80;99.90;;;;;;4917074;28;94453;-79
2021/12/08 11:47:45;;;;;;;5.78;4.03;;;5.90;99.90;;;;;;4917329;28;94528;-77
2021/12/08 11:50:19;;;;;;;8.15;3.80;;;5.90;99.90;;;;;;4919738;28;96564;-78
2021/12/08 11:52:54;;;;;;;4.60;3.40;;;5.90;99.90;;;;;;4918647;28;97797;-78
2021/12/08 11:55:20;;;;;;;6.35;4.63;;;5.90;99.90;;;;;;4916454;28;94513;-78
2021/12/08 11:57:54;;;;;;;9.75;4.25;;;5.80;99.90;;;;;;4917807;28;94584;-78
2021/12/08 12:00:32;;;;;;;5.53;4.07;;;5.90;99.90;;;;;;4916880;28;98130;-79
2021/12/08 12:03:03;;;;;;;6.57;4.28;;;5.90;99.90;;;;;;4917324;28;96638;-78
2021/12/08 12:05:32;;;;;;;6.63;4.38;;;5.90;99.90;;;;;;4915270;28;94518;-77
2021/12/08 12:07:59;;;;;;;5.65;3.95;;;5.80;99.90;;;;;;4915194;28;93779;-77
2021/12/08 12:10:33;;;;;;;9.82;4.78;;;5.80;99.90;;;;;;4921848;28;95781;-78
2021/12/08 12:12:59;;;;;;;6.18;4.38;;;5.80;99.90;;;;;;4920985;28;95769;-76
2021/12/08 12:15:25;;;;;;;8.95;4.60;;;5.80;99.90;;;;;;4912790;28;95539;-77
2021/12/08 12:17:51;;;;;;;8.73;5.15;;;5.80;99.90;;;;;;4915713;28;94690;-77
2021/12/08 12:20:48;;;;;;;11.63;5.38;;;5.70;99.90;;;;;;4917515;28;95255;-78
2021/12/08 12:23:40;;;;;;;8.10;5.10;;;5.80;99.90;;;;;;4915668;28;98316;-79
2021/12/08 12:26:24;;;;;;;11.05;5.03;;;5.90;99.90;;;;;;4918567;28;94317;-81
2021/12/08 12:29:07;;;;;;;7.55;4.57;;;5.80;99.90;;;;;;4918615;28;94853;-79
2021/12/08 12:31:39;;;;;;;10.00;5.55;;;5.90;99.90;;;;;;4917060;28;96940;-80
2021/12/08 12:34:24;;;;;;;9.45;5.25;;;5.80;99.90;;;;;;4934662;28;96265;-79
2021/12/08 12:36:50;;;;;;;5.43;4.10;;;5.90;99.90;;;;;;4926728;28;94536;-82
2021/12/08 12:39:20;;;;;;;7.20;4.22;;;5.90;99.90;;;;;;4923121;28;94531;-80
2021/12/08 12:42:15;;;;;;;7.28;4.05;;;5.90;99.90;;;;;;4924780;28;99291;-78
2021/12/08 12:45:02;;;;;;;5.97;3.90;;;5.90;99.90;;;;;;4921052;28;96159;-77
2021/12/08 12:47:30;;;;;;;5.45;4.20;;;5.80;99.90;;;;;;4922714;28;94498;-77
2021/12/08 12:50:14;;;;;;;4.53;4.10;;;5.80;99.90;;;;;;4923200;28;94507;-78
2021/12/08 12:52:53;;;;;;;5.07;3.88;;;5.80;99.90;;;;;;4924422;28;94549;-78
2021/12/08 12:55:23;;;;;;;5.68;4.28;;;5.90;99.90;;;;;;4925041;28;97438;-78
2021/12/08 12:58:08;;;;;;;7.22;4.43;;;5.90;99.90;;;;;;4920578;28;94345;-78
2021/12/08 13:00:49;;;;;;;5.38;4.35;;;5.90;99.90;;;;;;4918252;28;93847;-78
2021/12/08 13:03:35;;;;;;;7.03;4.15;;;5.90;99.90;;;;;;4919399;28;95607;-79
2021/12/08 13:06:01;;;;;;;5.55;4.10;;;5.90;99.90;;;;;;4931383;28;96584;-81
2021/12/08 13:08:41;;;;;;;5.78;4.63;;;5.90;99.90;;;;;;4919696;28;95851;-78
2021/12/08 13:11:22;;;;;;;8.23;4.63;;;5.90;99.90;;;;;;4924818;28;94532;-79
2021/12/08 13:13:52;;;;;;;5.53;4.30;;;6.00;99.90;;;;;;4916900;28;94570;-78
2021/12/08 13:16:27;;;;;;;6.53;4.32;;;5.90;99.90;;;;;;4921730;28;96497;-78
2021/12/08 13:18:58;;;;;;;7.68;4.30;;;5.90;99.90;;;;;;4926003;28;94525;-83
2021/12/08 13:21:45;;;;;;;5.55;4.30;;;5.90;99.90;;;;;;4934793;28;94480;-79
2021/12/08 13:24:40;;;;;;;6.10;4.38;;;5.90;99.90;;;;;;4922106;28;98334;-79
2021/12/08 13:27:13;;;;;;;6.47;4.80;;;5.80;99.90;;;;;;4939533;28;97997;-79
2021/12/08 13:29:45;;;;;;;6.75;4.63;;;5.70;99.90;;;;;;4923513;28;94654;-79
2021/12/08 13:32:28;;;;;;;6.72;4.70;;;5.70;99.90;;;;;;4925662;28;94837;-79
2021/12/08 13:34:59;;;;;;;7.88;5.00;;;5.70;99.90;;;;;;4927916;28;99522;-79
2021/12/08 13:37:30;;;;;;;9.90;5.57;;;5.70;99.90;;;;;;4934073;28;97544;-79
2021/12/08 13:40:08;;;;;;;9.60;6.10;;;5.60;99.90;;;;;;4926560;28;94473;-78
2021/12/08 13:42:48;;;;;;;11.13;5.95;;;5.50;99.90;;;;;;4938827;28;94548;-80
2021/12/08 13:45:14;;;;;;;9.23;6.53;;;5.60;99.90;;;;;;4937790;28;98510;-78
2021/12/08 13:47:42;;;;;;;9.90;6.82;;;5.60;99.90;;;;;;4941177;28;94356;-79
2021/12/08 13:50:18;;;;;;;12.93;7.70;;;5.60;99.90;;;;;;4939718;28;94454;-78
2021/12/08 13:53:10;;;;;;;11.82;7.40;;;5.50;99.90;;;;;;4939673;28;93655;-78
2021/12/08 13:55:48;;;;;;;15.63;9.77;;;5.40;99.90;;;;;;4938035;28;98314;-77
2021/12/08 13:58:16;;;;;;;12.55;8.75;;;5.40;99.90;;;;;;4941557;28;95417;-78
2021/12/08 14:00:54;;;;;;;15.25;8.65;;;5.40;99.90;;;;;;4938330;28;95347;-78
2021/12/08 14:03:41;;;;;;;11.95;8.60;;;5.40;99.90;;;;;;4940425;28;94749;-78
2021/12/08 14:06:08;;;;;;;12.32;8.00;;;5.30;99.90;;;;;;4938101;28;94745;-77
2021/12/08 14:08:42;;;;;;;14.35;8.73;;;5.30;99.90;;;;;;4937216;28;96723;-77
2021/12/08 14:11:17;;;;;;;13.82;10.10;;;5.30;99.90;;;;;;4929882;28;94648;-77
2021/12/08 14:13:46;;;;;;;20.50;10.70;;;5.30;99.90;;;;;;4918865;28;94951;-80
2021/12/08 14:16:15;;;;;;;16.88;11.20;;;5.30;99.90;;;;;;4931000;28;97990;-77
2021/12/08 14:18:47;;;;;;;17.33;11.10;;;5.30;99.90;;;;;;4925994;28;93865;-77
2021/12/08 14:21:23;;;;;;;20.45;11.90;;;5.20;99.90;;;;;;4917213;28;94805;-77
2021/12/08 14:23:51;;;;;;;17.83;10.98;;;5.20;99.90;;;;;;4904018;28;94949;-77
2021/12/08 14:26:23;;;;;;;20.10;12.02;;;5.20;99.90;;;;;;4916639;28;96153;-77
2021/12/08 14:28:53;;;;;;;25.13;14.45;;;5.20;99.90;;;;;;4918840;28;95267;-81
2021/12/08 14:31:49;;;;;;;21.88;13.23;;;5.10;99.90;;;;;;4927811;28;94574;-77
2021/12/08 14:34:18;;;;;;;26.48;14.32;;;5.10;99.90;;;;;;4913472;28;95250;-77
2021/12/08 14:36:53;;;;;;;24.27;14.23;;;5.10;99.90;;;;;;4933063;28;95428;-77
2021/12/08 14:39:28;;;;;;;24.60;13.98;;;5.10;99.90;;;;;;4922930;28;95389;-77
2021/12/08 14:41:56;;;;;;;25.85;17.15;;;5.10;99.90;;;;;;4924585;28;95051;-77
2021/12/08 14:44:25;;;;;;;26.60;14.68;;;5.00;99.90;;;;;;4931453;28;93579;-77
2021/12/08 14:46:57;;;;;;;27.65;15.75;;;5.00;99.90;;;;;;4920169;28;95160;-77
2021/12/08 14:49:29;;;;;;;26.38;15.48;;;5.00;99.90;;;;;;4929966;28;95100;-76
2021/12/08 14:52:03;;;;;;;23.90;15.57;;;5.00;99.90;;;;;;4927232;28;95309;-77
2021/12/08 14:54:32;;;;;;;29.13;16.40;;;4.90;99.90;;;;;;4919134;28;94564;-77
2021/12/08 14:57:02;;;;;;;25.33;15.02;;;5.00;99.90;;;;;;4931267;28;97338;-77
2021/12/08 14:59:28;;;;;;;22.42;13.73;;;4.90;99.90;;;;;;4923623;28;96078;-77
2021/12/08 15:01:53;;;;;;;23.35;14.27;;;4.90;99.90;;;;;;4925842;28;94856;-77
2021/12/08 15:04:19;;;;;;;23.40;14.23;;;4.90;99.90;;;;;;4928906;28;94568;-77
2021/12/08 15:07:01;;;;;;;22.83;14.73;;;4.90;99.90;;;;;;4919958;28;95605;-77
2021/12/08 15:09:29;;;;;;;26.58;14.45;;;4.90;99.90;;;;;;4929441;28;97231;-77
2021/12/08 15:11:57;;;;;;;22.80;14.02;;;4.80;99.90;;;;;;4927212;28;94787;-77
2021/12/08 15:14:24;;;;;;;24.38;14.85;;;4.80;99.90;;;;;;4920983;28;94398;-76
2021/12/08 15:16:52;;;;;;;29.45;18.13;;;4.80;99.90;;;;;;4930641;28;98014;-77
2021/12/08 15:19:18;;;;;;;30.55;18.23;;;4.80;99.90;;;;;;4920154;28;97612;-77
2021/12/08 15:21:47;;;;;;;29.25;18.95;;;4.80;99.90;;;;;;4937495;28;94699;-76
2021/12/08 15:24:17;;;;;;;29.45;18.20;;;4.70;99.90;;;;;;4923655;28;94624;-82
2021/12/08 15:26:44;;;;;;;31.13;18.63;;;4.70;99.90;;;;;;4928792;28;97274;-79
2021/12/08 15:29:21;;;;;;;29.00;18.10;;;4.70;99.90;;;;;;4916407;28;95360;-77
2021/12/08 15:31:57;;;;;;;30.80;18.65;;;4.70;99.90;;;;;;4916097;28;94441;-76
2021/12/08 15:34:33;;;;;;;40.97;20.95;;;4.70;99.90;;;;;;4915649;28;93874;-76
2021/12/08 15:37:05;;;;;;;40.80;22.50;;;4.60;99.90;;;;;;4917281;28;94511;-78
2021/12/08 15:39:33;;;;;;;38.72;23.15;;;4.60;99.90;;;;;;4919289;28;95280;-76
2021/12/08 15:42:00;;;;;;;40.08;22.58;;;4.60;99.90;;;;;;4916936;28;95487;-77
2021/12/08 15:44:27;;;;;;;40.00;23.13;;;4.60;99.90;;;;;;4919835;28;94532;-76
2021/12/08 15:46:54;;;;;;;39.58;21.10;;;4.60;99.90;;;;;;4924372;28;95167;-78
2021/12/08 15:49:29;;;;;;;28.00;17.67;;;4.60;99.90;;;;;;4931625;28;97888;-78
2021/12/08 15:52:05;;;;;;;26.33;16.23;;;4.50;99.90;;;;;;4926459;28;94431;-78
2021/12/08 15:54:33;;;;;;;30.13;15.95;;;4.50;99.90;;;;;;4925705;28;94583;-77
2021/12/08 15:57:05;;;;;;;30.27;16.10;;;4.50;99.90;;;;;;4920139;28;98286;-77
2021/12/08 15:59:37;;;;;;;28.85;16.88;;;4.40;99.90;;;;;;4918326;28;93934;-78
2021/12/08 16:02:13;;;;;;;26.38;16.17;;;4.40;99.90;;;;;;4918398;28;94542;-78
2021/12/08 16:04:54;;;;;;;27.40;16.50;;;4.40;99.90;;;;;;4916161;28;94595;-75
2021/12/08 16:07:28;;;;;;;25.75;16.67;;;4.40;99.90;;;;;;4916703;28;95904;-76
2021/12/08 16:09:53;;;;;;;23.27;15.40;;;4.40;99.90;;;;;;4916164;28;98633;-76
2021/12/08 16:12:19;;;;;;;26.63;16.50;;;4.40;99.90;;;;;;4916738;28;94416;-75
2021/12/08 16:15:00;;;;;;;22.92;14.93;;;4.30;99.90;;;;;;4915764;28;94568;-76
2021/12/08 16:17:34;;;;;;;24.65;14.98;;;4.30;99.90;;;;;;4916446;28;94721;-75
2021/12/08 16:20:19;;;;;;;23.80;14.07;;;4.30;99.90;;;;;;4916457;28;95121;-75
2021/12/08 16:22:45;;;;;;;28.52;17.35;;;4.30;99.90;;;;;;4916345;28;94421;-75
2021/12/08 16:25:11;;;;;;;26.58;16.27;;;4.30;99.90;;;;;;4914166;28;93907;-75
2021/12/08 16:27:38;;;;;;;23.92;15.70;;;4.30;99.90;;;;;;4915236;28;95670;-75
2021/12/08 16:30:07;;;;;;;25.85;16.10;;;4.20;99.90;;;;;;4916792;28;94317;-76
2021/12/08 16:32:33;;;;;;;25.10;16.10;;;4.20;99.90;;;;;;4915254;28;95410;-75
2021/12/08 16:35:00;;;;;;;28.98;17.05;;;4.20;99.90;;;;;;4916031;28;94515;-75
2021/12/08 16:37:27;;;;;;;27.88;16.50;;;4.20;99.90;;;;;;4916060;28;95501;-75
2021/12/08 16:40:20;;;;;;;26.42;16.48;;;4.20;99.90;;;;;;4915955;28;94496;-76
2021/12/08 16:43:03;;;;;;;30.70;16.80;;;4.20;99.90;;;;;;4915782;28;94492;-76
2021/12/08 16:45:35;;;;;;;27.77;16.42;;;4.20;99.90;;;;;;4916379;28;94939;-76
2021/12/08 16:48:05;;;;;;;26.02;16.20;;;4.20;99.90;;;;;;4915711;28;95668;-75
2021/12/08 16:50:32;;;;;;;31.67;16.90;;;4.20;99.90;;;;;;4917941;28;97157;-75
2021/12/08 16:53:00;;;;;;;28.13;16.30;;;4.20;99.90;;;;;;4916480;28;94466;-74
2021/12/08 16:55:27;;;;;;;27.73;16.90;;;4.20;99.90;;;;;;4925478;28;94422;-75
2021/12/08 16:57:58;;;;;;;27.08;16.40;;;4.30;99.90;;;;;;4916892;28;98754;-75
2021/12/08 17:00:34;;;;;;;27.98;15.77;;;4.30;99.90;;;;;;4924533;28;95722;-74
2021/12/08 17:03:02;;;;;;;25.80;16.17;;;4.20;99.90;;;;;;4922843;28;94493;-79
2021/12/08 17:05:28;;;;;;;28.50;15.68;;;4.20;99.90;;;;;;4921835;28;94592;-76
2021/12/08 17:07:53;;;;;;;27.55;16.63;;;4.30;99.90;;;;;;4928879;28;95665;-76
2021/12/08 17:10:19;;;;;;;24.15;16.52;;;4.20;99.90;;;;;;4937225;28;95239;-75
2021/12/08 17:12:45;;;;;;;22.40;15.55;;;4.20;99.90;;;;;;4926208;28;94508;-76
2021/12/08 17:15:13;;;;;;;23.85;15.55;;;4.20;99.90;;;;;;4920860;28;93640;-77
2021/12/08 17:17:38;;;;;;;27.90;16.27;;;4.20;99.90;;;;;;4936611;28;94544;-76
2021/12/08 17:20:06;;;;;;;26.45;16.83;;;4.20;99.90;;;;;;4933650;28;94584;-76
2021/12/08 17:22:31;;;;;;;24.75;15.50;;;4.10;99.90;;;;;;4925388;28;95439;-75
2021/12/08 17:24:57;;;;;;;26.58;15.60;;;4.20;99.90;;;;;;4917911;28;94665;-76
2021/12/08 17:27:23;;;;;;;27.23;16.38;;;4.10;99.90;;;;;;4931615;28;97253;-77
2021/12/08 17:29:49;;;;;;;27.10;15.43;;;4.20;99.90;;;;;;4932643;28;95315;-81
2021/12/08 17:32:15;;;;;;;25.23;15.40;;;4.10;99.90;;;;;;4925852;28;94612;-81
2021/12/08 17:34:41;;;;;;;25.50;15.60;;;4.10;99.90;;;;;;4937750;28;94415;-83
2021/12/08 17:37:06;;;;;;;25.75;16.10;;;4.10;99.90;;;;;;4938804;28;95829;-81
2021/12/08 17:39:32;;;;;;;27.65;15.32;;;4.10;99.90;;;;;;4922690;28;94961;-79
2021/12/08 17:42:00;;;;;;;25.35;15.57;;;4.10;99.90;;;;;;4927651;28;94404;-77
2021/12/08 17:44:26;;;;;;;25.20;15.18;;;4.10;99.90;;;;;;4930579;28;94467;-80
2021/12/08 17:46:52;;;;;;;23.05;15.23;;;4.10;99.90;;;;;;4922802;28;95738;-79
2021/12/08 17:49:18;;;;;;;26.60;15.93;;;4.10;99.90;;;;;;4920942;28;97810;-79
2021/12/08 17:51:44;;;;;;;26.35;15.80;;;4.10;99.90;;;;;;4938321;28;94493;-78
2021/12/08 17:54:10;;;;;;;26.63;16.33;;;4.10;99.90;;;;;;4927817;28;94550;-80
2021/12/08 17:56:38;;;;;;;29.10;17.88;;;4.10;99.90;;;;;;4920370;28;97729;-79
2021/12/08 17:59:06;;;;;;;34.08;21.30;;;4.10;99.90;;;;;;4936501;28;98038;-81
2021/12/08 18:01:34;;;;;;;36.65;23.90;;;4.10;99.90;;;;;;4929762;28;94517;-80
2021/12/08 18:04:01;;;;;;;38.58;23.50;;;4.10;99.90;;;;;;4934858;28;93768;-80
2021/12/08 18:06:28;;;;;;;32.83;19.33;;;4.10;99.90;;;;;;4921767;28;95232;-77
2021/12/08 18:08:56;;;;;;;35.85;20.27;;;4.10;99.90;;;;;;4916881;28;97158;-76
2021/12/08 18:11:22;;;;;;;23.38;13.75;;;4.10;99.90;;;;;;4926916;28;95561;-76
2021/12/08 18:13:47;;;;;;;24.50;14.93;;;4.10;99.90;;;;;;4934778;28;94574;-77
2021/12/08 18:16:15;;;;;;;25.20;15.57;;;4.10;99.90;;;;;;4932180;28;97425;-75
2021/12/08 18:18:40;;;;;;;24.35;15.43;;;4.10;99.90;;;;;;4940448;28;94335;-77
2021/12/08 18:21:06;;;;;;;25.50;15.90;;;4.10;99.90;;;;;;4940187;28;94653;-79
2021/12/08 18:23:32;;;;;;;38.60;19.38;;;4.10;99.90;;;;;;4943221;28;94694;-79
2021/12/08 18:25:58;;;;;;;44.03;24.15;;;4.10;99.90;;;;;;4924445;28;96448;-79